createdAt,value
2017-09-09T00:01:21.593Z,88.60
2017-09-09T00:03:49.382Z,88.40
2017-09-09T00:06:18.216Z,87.70
2017-09-09T00:08:45.936Z,87.60
2017-09-09T00:11:14.565Z,87.90
2017-09-09T00:13:42.347Z,87.90
2017-09-09T00:16:11.012Z,89.10
2017-09-09T00:18:38.781Z,88.70
2017-09-09T00:21:06.540Z,88.50
2017-09-09T00:23:34.621Z,87.80
2017-09-09T00:26:02.538Z,88.40
2017-09-09T00:28:31.040Z,87.10
2017-09-09T00:30:58.951Z,87.00
2017-09-09T00:33:26.833Z,86.80
2017-09-09T00:35:55.367Z,86.50
2017-09-09T00:38:23.161Z,86.40
2017-09-09T00:40:51.853Z,85.90
2017-09-09T00:43:19.749Z,85.60
2017-09-09T00:45:48.307Z,85.10
2017-09-09T00:48:16.162Z,85.10
2017-09-09T00:50:44.006Z,85.40
2017-09-09T00:53:11.995Z,85.30
2017-09-09T00:55:39.966Z,85.00
2017-09-09T00:58:07.940Z,85.20
2017-09-09T01:00:35.803Z,85.10
2017-09-09T01:03:03.611Z,85.50
2017-09-09T01:05:31.439Z,85.50
2017-09-09T01:07:59.237Z,85.50
2017-09-09T01:10:27.886Z,85.70
2017-09-09T01:12:55.863Z,85.70
2017-09-09T01:15:23.827Z,85.80
2017-09-09T01:17:51.668Z,86.20
2017-09-09T01:20:19.650Z,85.90
2017-09-09T01:22:47.555Z,86.40
2017-09-09T01:25:16.293Z,87.80
2017-09-09T01:27:44.160Z,87.80
2017-09-09T01:30:11.938Z,88.20
2017-09-09T01:32:39.803Z,88.70
2017-09-09T01:35:07.669Z,89.30
2017-09-09T01:37:35.407Z,89.50
2017-09-09T01:40:04.104Z,89.70
2017-09-09T01:42:31.865Z,90.00
2017-09-09T01:44:59.726Z,89.10
2017-09-09T01:47:27.526Z,88.30
2017-09-09T01:49:55.289Z,88.10
2017-09-09T01:55:17.416Z,88.10
2017-09-09T01:57:45.194Z,88.10
2017-09-09T02:00:13.043Z,88.00
2017-09-09T02:02:40.914Z,89.00
2017-09-09T02:05:08.684Z,89.60
2017-09-09T02:07:36.433Z,89.20
2017-09-09T02:10:04.205Z,89.60
2017-09-09T02:12:31.969Z,90.00
2017-09-09T02:14:59.786Z,90.20
2017-09-09T02:17:28.289Z,89.80
2017-09-09T02:19:56.080Z,89.80
2017-09-09T02:22:23.962Z,90.10
2017-09-09T02:24:51.704Z,90.20
2017-09-09T02:27:19.443Z,89.80
2017-09-09T02:29:47.356Z,88.60
2017-09-09T02:32:15.152Z,89.00
2017-09-09T02:34:43.075Z,88.90
2017-09-09T02:37:10.850Z,89.20
2017-09-09T02:39:38.639Z,89.60
2017-09-09T02:42:07.172Z,90.00
2017-09-09T02:44:34.931Z,90.00
2017-09-09T02:47:02.941Z,89.30
2017-09-09T02:49:30.796Z,89.00
2017-09-09T02:51:58.696Z,89.20
2017-09-09T02:54:27.362Z,88.90
2017-09-09T02:56:55.224Z,88.90
2017-09-09T02:59:22.979Z,87.70
2017-09-09T03:01:50.770Z,86.80
2017-09-09T03:04:19.335Z,85.30
2017-09-09T03:06:47.290Z,85.30
2017-09-09T03:09:15.147Z,85.30
2017-09-09T03:11:42.925Z,85.80
2017-09-09T03:14:10.795Z,86.40
2017-09-09T03:16:38.666Z,87.50
2017-09-09T03:19:06.523Z,87.90
2017-09-09T03:21:34.291Z,88.30
2017-09-09T03:24:02.258Z,88.70
2017-09-09T03:26:30.127Z,88.50
2017-09-09T03:28:58.709Z,88.20
2017-09-09T03:31:26.492Z,88.20
2017-09-09T03:33:54.250Z,88.80
2017-09-09T03:36:21.999Z,89.00
2017-09-09T03:38:49.866Z,89.10
2017-09-09T03:41:17.733Z,89.10
2017-09-09T03:43:45.511Z,89.00
2017-09-09T03:46:13.371Z,88.00
2017-09-09T03:48:41.123Z,87.00
2017-09-09T03:51:08.908Z,86.60
2017-09-09T03:53:36.859Z,86.60
2017-09-09T03:56:04.628Z,86.20
2017-09-09T03:58:33.215Z,86.50
2017-09-09T04:01:01.211Z,86.50
2017-09-09T04:03:29.251Z,86.80
2017-09-09T04:05:57.007Z,86.90
2017-09-09T04:08:24.766Z,87.20
2017-09-09T04:10:52.523Z,87.50
2017-09-09T04:13:20.492Z,87.80
2017-09-09T04:15:48.235Z,87.70
2017-09-09T04:18:16.038Z,86.40
2017-09-09T04:20:43.923Z,85.70
2017-09-09T04:23:11.778Z,85.10
2017-09-09T04:25:39.839Z,84.80
2017-09-09T04:28:07.816Z,84.90
2017-09-09T04:30:35.573Z,85.20
2017-09-09T04:33:03.444Z,85.20
2017-09-09T04:35:31.303Z,85.90
2017-09-09T04:37:59.072Z,86.00
2017-09-09T04:40:26.923Z,86.20
2017-09-09T04:42:54.786Z,86.40
2017-09-09T04:47:56.681Z,87.00
2017-09-09T04:50:24.648Z,87.30
2017-09-09T04:52:53.010Z,87.90
2017-09-09T04:55:20.920Z,88.30
2017-09-09T04:57:49.583Z,88.90
2017-09-09T06:27:19.467Z,78.80
2017-09-09T06:29:47.440Z,77.70
2017-09-09T06:32:16.125Z,72.40
2017-09-09T06:34:43.990Z,72.40
2017-09-09T06:37:11.796Z,69.50
2017-09-09T06:39:40.298Z,64.20
2017-09-09T06:42:08.303Z,64.30
2017-09-09T06:44:36.164Z,65.30
2017-09-09T06:47:03.937Z,63.30
2017-09-09T06:49:31.800Z,63.70
2017-09-09T06:51:59.571Z,64.60
2017-09-09T06:54:27.432Z,62.40
2017-09-09T06:56:55.276Z,61.60
2017-09-09T06:59:23.161Z,61.90
2017-09-09T07:01:50.899Z,62.20
2017-09-09T07:04:18.886Z,64.00
2017-09-09T07:06:46.966Z,64.30
2017-09-09T07:09:14.831Z,66.50
2017-09-09T07:11:42.709Z,69.10
2017-09-09T07:14:10.546Z,71.30
2017-09-09T07:16:38.452Z,72.60
2017-09-09T07:19:07.338Z,74.20
2017-09-09T07:21:35.615Z,74.20
2017-09-09T07:24:04.988Z,72.70
2017-09-09T07:26:32.750Z,72.70
2017-09-09T07:29:00.536Z,73.20
2017-09-09T07:31:28.574Z,73.70
2017-09-09T07:33:56.785Z,73.90
2017-09-09T07:36:24.767Z,74.00
2017-09-09T07:38:53.450Z,73.70
2017-09-09T07:41:21.300Z,73.80
2017-09-09T07:43:49.345Z,74.50
2017-09-09T07:46:17.190Z,75.10
2017-09-09T07:48:45.043Z,75.90
2017-09-09T07:51:12.844Z,75.80
2017-09-09T07:53:40.816Z,76.00
2017-09-09T07:56:08.953Z,75.10
2017-09-09T07:58:36.780Z,76.30
2017-09-09T08:01:04.545Z,76.40
2017-09-09T08:03:32.327Z,76.50
2017-09-09T08:06:01.291Z,76.40
2017-09-09T08:08:29.347Z,76.40
2017-09-09T08:10:57.998Z,76.50
2017-09-09T08:13:25.747Z,76.40
2017-09-09T08:15:54.413Z,75.90
2017-09-09T08:18:22.977Z,75.70
2017-09-09T08:20:51.036Z,75.60
2017-09-09T08:23:18.924Z,75.50
2017-09-09T08:25:46.770Z,74.90
2017-09-09T08:28:14.510Z,74.50
2017-09-09T08:30:42.263Z,74.10
2017-09-09T08:33:10.671Z,74.30
2017-09-09T08:35:38.434Z,74.50
2017-09-09T08:38:06.223Z,73.70
2017-09-09T08:40:34.042Z,72.00
2017-09-09T08:43:01.803Z,73.60
2017-09-09T08:45:29.623Z,74.20
2017-09-09T08:47:57.461Z,74.60
2017-09-09T08:50:25.854Z,76.10
2017-09-09T08:52:53.600Z,75.70
2017-09-09T08:55:21.360Z,77.00
2017-09-09T08:57:49.239Z,78.30
2017-09-09T09:00:16.994Z,79.20
2017-09-09T09:02:44.778Z,80.00
2017-09-09T09:05:12.749Z,80.30
2017-09-09T09:07:40.581Z,80.70
2017-09-09T09:10:08.351Z,79.90
2017-09-09T09:12:36.129Z,78.80
2017-09-09T09:15:03.872Z,79.10
2017-09-09T09:17:31.755Z,78.90
2017-09-09T09:19:59.501Z,77.70
2017-09-09T09:22:27.282Z,77.60
2017-09-09T09:24:55.249Z,77.40
2017-09-09T09:27:23.088Z,76.10
2017-09-09T09:29:50.856Z,76.80
2017-09-09T09:32:18.625Z,75.20
2017-09-09T09:34:46.362Z,73.70
2017-09-09T09:37:14.910Z,73.30
2017-09-09T09:39:42.855Z,73.30
2017-09-09T09:42:10.730Z,72.70
2017-09-09T09:44:38.625Z,71.90
2017-09-09T09:47:07.483Z,73.10
2017-09-09T09:49:35.222Z,73.80
2017-09-09T09:52:02.999Z,74.40
2017-09-09T09:54:30.810Z,73.20
2017-09-09T09:56:58.663Z,74.30
2017-09-09T09:59:26.464Z,74.10
2017-09-09T10:01:54.265Z,75.60
2017-09-09T10:04:22.139Z,76.60
2017-09-09T10:06:49.879Z,77.90
2017-09-09T10:09:17.639Z,79.30
2017-09-09T10:11:45.369Z,80.30
2017-09-09T10:14:14.008Z,81.70
2017-09-09T10:16:41.813Z,81.70
2017-09-09T10:19:11.110Z,83.60
2017-09-09T10:21:39.743Z,83.90
2017-09-09T10:24:10.424Z,84.00
2017-09-09T10:26:38.267Z,83.10
2017-09-09T10:29:06.082Z,83.90
2017-09-09T10:31:35.143Z,82.40
2017-09-09T10:34:03.090Z,82.40
2017-09-09T10:36:30.975Z,83.40
2017-09-09T10:38:58.824Z,83.50
2017-09-09T10:41:26.614Z,83.70
2017-09-09T10:43:54.475Z,85.50
2017-09-09T10:46:22.334Z,85.20
2017-09-09T10:48:50.185Z,85.80
2017-09-09T10:51:17.989Z,86.30
2017-09-09T10:53:46.855Z,86.80
2017-09-09T10:56:14.648Z,87.60
2017-09-09T10:58:43.431Z,87.90
2017-09-09T11:01:11.976Z,87.30
2017-09-09T11:03:39.740Z,87.70
2017-09-09T11:06:07.487Z,88.20
2017-09-09T11:08:35.353Z,88.00
2017-09-09T11:11:03.249Z,88.20
2017-09-09T11:13:31.513Z,88.40
2017-09-09T11:15:59.387Z,88.50
2017-09-09T11:18:27.231Z,88.80
2017-09-09T11:20:55.031Z,90.10
2017-09-09T11:23:22.802Z,89.30
2017-09-09T11:25:51.160Z,90.00
2017-09-09T11:28:18.955Z,90.80
2017-09-09T11:30:46.882Z,90.60
2017-09-09T11:33:14.682Z,90.70
2017-09-09T11:35:43.250Z,88.80
2017-09-09T11:38:11.080Z,88.90
2017-09-09T11:40:38.839Z,89.10
2017-09-09T11:43:06.619Z,88.30
2017-09-09T11:45:34.493Z,90.00
2017-09-09T11:48:02.494Z,89.30
2017-09-09T11:50:30.447Z,89.90
2017-09-09T11:52:58.342Z,90.00
2017-09-09T11:55:27.755Z,85.70
2017-09-09T11:57:55.522Z,85.70
2017-09-09T12:00:24.209Z,85.40
2017-09-09T12:02:52.224Z,85.40
2017-09-09T12:05:20.051Z,87.30
2017-09-09T12:07:47.822Z,85.00
2017-09-09T12:10:15.739Z,83.40
2017-09-09T12:12:44.741Z,83.90
2017-09-09T12:15:13.352Z,85.30
2017-09-09T12:17:41.246Z,85.40
2017-09-09T12:20:09.054Z,83.40
2017-09-09T12:22:36.894Z,83.30
2017-09-09T12:25:04.777Z,84.90
2017-09-09T12:27:32.530Z,85.90
2017-09-09T12:30:00.528Z,84.20
2017-09-09T12:32:28.291Z,84.50
2017-09-09T12:34:56.860Z,84.80
2017-09-09T12:37:24.605Z,84.60
2017-09-09T12:39:52.490Z,84.90
2017-09-09T12:42:20.446Z,84.60
2017-09-09T12:44:48.536Z,84.90
2017-09-09T12:47:16.477Z,82.90
2017-09-09T12:49:44.375Z,84.90
2017-09-09T12:52:12.233Z,86.10
2017-09-09T12:54:40.211Z,85.70
2017-09-09T12:57:08.664Z,85.80
2017-09-09T12:59:36.451Z,85.50
2017-09-09T13:02:04.295Z,85.90
2017-09-09T13:04:32.270Z,87.40
2017-09-09T13:07:00.950Z,86.90
2017-09-09T13:09:28.883Z,86.00
2017-09-09T13:11:56.749Z,85.70
2017-09-09T13:14:25.173Z,85.10
2017-09-09T13:16:53.050Z,86.10
2017-09-09T13:19:20.809Z,86.00
2017-09-09T13:21:48.612Z,84.80
2017-09-09T13:24:18.685Z,84.30
2017-09-09T13:26:47.174Z,84.20
2017-09-09T13:29:14.980Z,83.00
2017-09-09T13:31:42.840Z,83.50
2017-09-09T13:34:11.572Z,84.00
2017-09-09T13:36:39.497Z,84.00
2017-09-09T13:39:09.155Z,82.20
2017-09-09T13:41:36.925Z,81.80
2017-09-09T13:44:05.207Z,82.60
2017-09-09T13:46:33.693Z,82.10
2017-09-09T13:49:01.444Z,80.30
2017-09-09T13:51:29.322Z,82.40
2017-09-09T13:53:57.539Z,84.00
2017-09-09T13:56:26.192Z,81.30
2017-09-09T13:58:55.049Z,82.30
2017-09-09T14:01:22.834Z,82.30
2017-09-09T14:03:50.691Z,82.00
2017-09-09T14:06:18.693Z,82.30
2017-09-09T14:08:47.274Z,85.50
2017-09-09T14:11:15.298Z,85.40
2017-09-09T14:13:43.229Z,84.60
2017-09-09T14:16:11.174Z,85.20
2017-09-09T14:18:39.018Z,83.70
2017-09-09T14:21:07.094Z,83.60
2017-09-09T14:23:34.935Z,83.50
2017-09-09T14:26:02.811Z,83.50
2017-09-09T14:28:30.677Z,85.10
2017-09-09T14:30:58.561Z,85.40
2017-09-09T14:33:26.427Z,83.80
2017-09-09T14:35:55.485Z,83.40
2017-09-09T14:38:23.387Z,84.90
2017-09-09T14:40:51.280Z,84.70
2017-09-09T14:43:20.256Z,84.40
2017-09-09T14:45:48.832Z,84.50
2017-09-09T14:48:16.709Z,83.40
2017-09-09T14:50:44.650Z,85.00
2017-09-09T14:53:14.087Z,84.60
2017-09-09T14:55:42.858Z,87.20
2017-09-09T14:58:10.833Z,86.80
2017-09-09T15:00:38.673Z,86.60
2017-09-09T15:03:06.499Z,86.20
2017-09-09T15:05:35.059Z,87.70
2017-09-09T15:08:03.206Z,87.70
2017-09-09T15:10:31.420Z,85.80
2017-09-09T15:12:59.392Z,85.80
2017-09-09T15:15:27.319Z,85.80
2017-09-09T15:17:56.190Z,85.90
2017-09-09T15:20:24.065Z,86.60
2017-09-09T15:22:51.852Z,86.00
2017-09-09T15:25:20.724Z,85.60
2017-09-09T15:27:48.687Z,85.70
2017-09-09T15:30:16.574Z,86.70
2017-09-09T15:32:44.461Z,87.20
2017-09-09T15:35:12.293Z,86.30
2017-09-09T15:37:40.798Z,87.00
2017-09-09T15:40:08.644Z,87.70
2017-09-09T15:42:37.439Z,86.40
2017-09-09T15:45:05.525Z,87.50
2017-09-09T15:47:33.343Z,88.10
2017-09-09T15:50:01.369Z,88.10
2017-09-09T15:52:29.609Z,88.30
2017-09-09T16:07:08.231Z,88.30
2017-09-09T16:09:36.187Z,87.80
2017-09-09T16:12:03.989Z,88.40
2017-09-09T16:14:33.381Z,89.60
2017-09-09T16:17:03.756Z,89.00
2017-09-09T16:19:31.630Z,89.00
2017-09-09T16:21:59.496Z,89.00
2017-09-09T16:24:27.875Z,89.00
2017-09-09T16:26:55.651Z,89.40
2017-09-09T16:29:23.572Z,89.00
2017-09-09T16:31:51.533Z,89.10
2017-09-09T16:34:19.544Z,89.80
2017-09-09T16:36:50.417Z,88.70
2017-09-09T16:39:18.467Z,88.10
2017-09-09T16:41:46.833Z,89.70
2017-09-09T16:44:15.037Z,89.30
2017-09-09T16:46:43.810Z,89.30
2017-09-09T16:49:13.936Z,89.50
2017-09-09T16:51:47.642Z,89.50
2017-09-09T16:54:17.118Z,90.40
2017-09-09T16:56:48.876Z,90.00
2017-09-09T16:59:19.579Z,90.30
2017-09-09T17:01:49.633Z,90.00
2017-09-09T17:04:20.269Z,90.10
2017-09-09T17:06:51.183Z,89.40
2017-09-09T17:09:21.595Z,89.30
2017-09-09T17:11:53.415Z,89.00
2017-09-09T17:14:22.542Z,89.20
2017-09-09T17:16:51.684Z,90.20
2017-09-09T17:19:20.398Z,90.50
2017-09-09T17:21:50.508Z,91.00
2017-09-09T17:24:18.765Z,90.90
2017-09-09T17:26:47.988Z,91.00
2017-09-09T17:29:17.522Z,91.20
2017-09-09T17:31:46.384Z,91.50
2017-09-09T17:34:16.305Z,91.90
2017-09-09T17:36:47.010Z,91.90
2017-09-09T17:39:18.661Z,91.80
2017-09-09T17:41:54.602Z,91.70
2017-09-09T17:44:26.643Z,92.10
2017-09-09T17:46:56.336Z,91.90
2017-09-09T17:49:24.565Z,92.30
2017-09-09T17:51:53.025Z,91.90
2017-09-09T17:54:23.156Z,91.70
2017-09-09T17:56:51.650Z,92.00
2017-09-09T17:59:19.511Z,92.10
2017-09-09T18:01:47.518Z,92.00
2017-09-09T18:04:16.260Z,92.30
2017-09-09T18:06:44.307Z,92.30
2017-09-09T18:09:12.230Z,92.00
2017-09-09T18:11:41.703Z,92.10
2017-09-09T18:14:09.642Z,92.10
2017-09-09T18:16:37.693Z,92.20
2017-09-09T18:19:06.531Z,92.00
2017-09-09T18:21:36.244Z,92.00
2017-09-09T18:24:04.540Z,92.10
2017-09-09T18:26:33.352Z,92.40
2017-09-09T18:29:02.975Z,92.10
2017-09-09T18:31:30.981Z,92.10
2017-09-09T18:33:58.995Z,92.30
2017-09-09T18:36:27.750Z,92.00
2017-09-09T18:38:55.704Z,92.00
2017-09-09T18:41:23.736Z,92.00
2017-09-09T18:43:52.673Z,91.90
2017-09-09T18:46:20.576Z,91.90
2017-09-09T18:48:49.221Z,92.30
2017-09-09T18:51:17.042Z,91.90
2017-09-09T18:53:45.774Z,91.80
2017-09-09T18:56:13.812Z,91.80
2017-09-09T18:58:41.698Z,91.90
2017-09-09T19:01:09.552Z,92.20
2017-09-09T19:03:37.564Z,92.20
2017-09-09T19:06:06.443Z,92.00
2017-09-09T19:08:34.616Z,92.20
2017-09-09T19:11:02.612Z,92.10
2017-09-09T19:13:31.298Z,92.40
2017-09-09T19:15:59.266Z,92.30
2017-09-09T19:18:27.110Z,92.20
2017-09-09T19:20:54.971Z,92.30
2017-09-09T19:23:22.876Z,92.50
2017-09-09T19:25:51.583Z,92.20
2017-09-09T19:28:19.418Z,92.20
2017-09-09T19:30:47.268Z,92.20
2017-09-09T19:33:15.256Z,92.50
2017-09-09T19:35:44.741Z,92.70
2017-09-09T19:38:12.712Z,92.70
2017-09-09T19:40:40.896Z,92.80
2017-09-09T19:43:08.845Z,92.90
2017-09-09T19:45:37.538Z,92.70
2017-09-09T19:48:05.421Z,92.70
2017-09-09T19:50:34.114Z,93.00
2017-09-09T19:53:02.966Z,92.40
2017-09-09T19:55:31.029Z,92.40
2017-09-09T19:57:59.005Z,92.40
2017-09-09T20:00:26.980Z,92.50
2017-09-09T20:02:54.939Z,92.40
2017-09-09T20:05:23.028Z,92.30
2017-09-09T20:07:50.822Z,92.40
2017-09-09T20:10:19.463Z,92.40
2017-09-09T20:12:47.337Z,92.40
2017-09-09T20:15:15.218Z,92.40
2017-09-09T20:17:43.076Z,92.20
2017-09-09T20:20:11.034Z,92.50
2017-09-09T20:22:38.930Z,92.60
2017-09-09T20:25:06.885Z,92.60
2017-09-09T20:27:34.815Z,92.60
2017-09-09T20:30:02.821Z,92.60
2017-09-09T20:32:30.658Z,92.70
2017-09-09T20:34:58.535Z,92.70
2017-09-09T20:37:26.644Z,92.80
2017-09-09T20:39:55.391Z,92.80
2017-09-09T20:42:23.576Z,92.70
2017-09-09T20:44:51.579Z,92.60
2017-09-09T20:47:20.341Z,92.70
2017-09-09T20:49:48.407Z,92.70
2017-09-09T20:52:16.682Z,92.70
2017-09-09T20:54:45.531Z,92.90
2017-09-09T20:57:13.723Z,92.90
2017-09-09T20:59:41.937Z,92.90
2017-09-09T21:02:10.005Z,92.90
2017-09-09T21:04:38.052Z,92.80
2017-09-09T21:07:07.148Z,93.00
2017-09-09T21:09:35.327Z,92.90
2017-09-09T21:12:03.209Z,92.50
2017-09-09T21:14:31.275Z,92.70
2017-09-09T21:16:59.253Z,92.80
2017-09-09T21:19:27.351Z,92.80
2017-09-09T21:21:55.924Z,92.40
2017-09-09T21:24:24.789Z,92.60
2017-09-09T21:26:52.739Z,92.40
2017-09-09T21:29:20.650Z,92.30
2017-09-09T21:31:49.782Z,92.40
2017-09-09T21:34:18.007Z,92.40
2017-09-09T21:36:46.742Z,92.40
2017-09-09T21:39:14.862Z,92.30
2017-09-09T21:41:44.102Z,92.30
2017-09-09T21:44:12.268Z,92.60
2017-09-09T21:46:40.872Z,92.30
2017-09-09T21:49:08.706Z,92.40
2017-09-09T21:51:37.447Z,92.30
2017-09-09T21:54:05.518Z,92.30
2017-09-09T21:56:33.485Z,92.10
2017-09-09T21:59:01.371Z,92.20
2017-09-09T22:01:30.229Z,92.00
2017-09-09T22:03:58.353Z,92.10
2017-09-09T22:06:27.132Z,92.30
2017-09-09T22:08:55.208Z,92.30
2017-09-09T22:11:23.144Z,92.20
2017-09-09T22:13:51.009Z,92.20
2017-09-09T22:16:19.099Z,92.50
2017-09-09T22:18:47.068Z,92.70
2017-09-09T22:21:15.364Z,92.30
2017-09-09T22:23:44.145Z,92.20
2017-09-09T22:26:12.181Z,92.20
2017-09-09T22:28:40.170Z,92.10
2017-09-09T22:31:08.347Z,92.00
2017-09-09T22:33:36.411Z,91.90
2017-09-09T22:36:04.268Z,91.90
2017-09-09T22:38:32.231Z,92.00
2017-09-09T22:41:00.203Z,92.00
2017-09-09T22:43:28.404Z,92.10
2017-09-09T22:45:56.238Z,92.00
2017-09-09T22:48:24.035Z,91.90
2017-09-09T22:50:52.094Z,91.50
2017-09-09T22:53:19.925Z,91.80
2017-09-09T22:55:47.727Z,91.90
2017-09-09T22:58:15.613Z,91.70
2017-09-09T23:00:44.388Z,91.60
2017-09-09T23:03:12.644Z,91.60
2017-09-09T23:05:40.502Z,91.90
2017-09-09T23:08:08.393Z,92.10
2017-09-09T23:10:36.254Z,92.10
2017-09-09T23:13:04.205Z,92.10
2017-09-09T23:15:32.480Z,92.10
2017-09-09T23:18:00.670Z,92.10
